Time;durP1;ratioP1;P1;durP2;ratioP2;P2;SDS_P1;SDS_P2;PMS_P1;PMS_P2;Temp;Humidity;BMP_temperature;BMP_pressure;BME280_temperature;BME280_humidity;BME280_pressure;Samples;Min_cycle;Max_cycle;Signal;HPM_P1;HPM_P2
2022/05/14 00:00:11;;;;;;;20.92;19.05;;;;;;;14.20;100.00;99281.81;2041779;29;20677;-73
2022/05/14 00:01:14;;;;;;;20.58;18.83;;;;;;;14.17;100.00;99282.44;2033748;29;20236;-72
2022/05/14 00:02:19;;;;;;;20.83;19.30;;;;;;;14.15;100.00;99280.03;2037055;29;20243;-72
2022/05/14 00:03:21;;;;;;;20.98;19.00;;;;;;;14.14;100.00;99275.78;2042192;29;20202;-72
2022/05/14 00:04:22;;;;;;;20.65;18.80;;;;;;;14.15;100.00;99274.69;2044908;29;20175;-72
2022/05/14 00:05:25;;;;;;;20.83;19.03;;;;;;;14.13;100.00;99278.78;2042278;29;20195;-72
2022/05/14 00:06:28;;;;;;;21.65;19.95;;;;;;;14.10;100.00;99274.84;2041784;29;20729;-72
2022/05/14 00:07:30;;;;;;;20.88;19.23;;;;;;;14.10;100.00;99274.84;2036273;29;20215;-72
2022/05/14 00:08:34;;;;;;;21.35;19.48;;;;;;;14.07;100.00;99270.13;2033858;29;20211;-72
2022/05/14 00:09:35;;;;;;;20.88;19.40;;;;;;;14.11;100.00;99273.75;2044367;29;20203;-72
2022/05/14 00:13:03;;;;;;;20.93;19.33;;;;;;;14.09;100.00;99270.59;2041803;29;20210;-72
2022/05/14 00:13:18;;;;;;;20.42;18.50;;;;;;;14.09;100.00;99281.31;2036345;29;20184;-72
2022/05/14 00:14:22;;;;;;;21.30;19.67;;;;;;;14.08;100.00;99277.06;2042132;29;20662;-72
2022/05/14 00:15:25;;;;;;;21.20;19.40;;;;;;;14.05;100.00;99272.31;2045294;29;20195;-72
2022/05/14 00:16:27;;;;;;;20.83;18.83;;;;;;;14.01;100.00;99270.56;2042357;29;20254;-72
2022/05/14 00:17:29;;;;;;;19.73;18.30;;;;;;;13.98;100.00;99265.81;2044433;29;20250;-74
2022/05/14 00:18:32;;;;;;;20.65;18.95;;;;;;;14.02;100.00;99266.78;2033619;29;20246;-74
2022/05/14 00:19:36;;;;;;;20.42;18.60;;;;;;;14.05;100.00;99280.34;2025559;29;20208;-73
2022/05/14 00:20:38;;;;;;;21.38;19.50;;;;;;;14.06;100.00;99279.25;2028289;29;20240;-74
2022/05/14 00:21:41;;;;;;;21.50;19.85;;;;;;;14.03;100.00;99279.09;2033460;29;20314;-73
2022/05/14 00:22:42;;;;;;;21.10;19.20;;;;;;;14.06;100.00;99286.50;2044478;29;20191;-73
2022/05/14 00:23:44;;;;;;;20.30;18.70;;;;;;;14.02;100.00;99278.31;2041710;29;20293;-72
2022/05/14 00:24:45;;;;;;;21.08;19.05;;;;;;;13.97;100.00;99273.06;2041529;29;20243;-72
2022/05/14 00:25:46;;;;;;;21.23;19.42;;;;;;;13.95;100.00;99272.59;2044103;29;20202;-72
2022/05/14 00:26:48;;;;;;;20.53;18.70;;;;;;;13.95;100.00;99277.97;2041616;29;20222;-72
2022/05/14 00:27:49;;;;;;;22.60;19.50;;;;;;;14.03;100.00;99279.88;2043445;29;20253;-72
2022/05/14 00:28:53;;;;;;;20.90;19.00;;;;;;;14.01;100.00;99279.41;2034430;29;20231;-72
2022/05/14 00:29:57;;;;;;;20.13;18.58;;;;;;;14.02;100.00;99282.88;2034264;29;20208;-72
2022/05/14 00:31:00;;;;;;;21.02;19.00;;;;;;;14.03;100.00;99277.19;2044523;29;20203;-72
2022/05/14 00:32:01;;;;;;;19.92;18.13;;;;;;;13.98;100.00;99276.53;2041918;29;20265;-72
2022/05/14 00:33:05;;;;;;;19.30;17.60;;;;;;;13.98;100.00;99284.59;2041905;29;20210;-72
2022/05/14 00:34:06;;;;;;;20.75;18.85;;;;;;;13.94;100.00;99284.44;2035219;29;20567;-72
2022/05/14 00:35:11;;;;;;;20.73;18.85;;;;;;;13.93;100.00;99285.56;2033916;29;20253;-72
2022/05/14 00:36:14;;;;;;;20.65;18.90;;;;;;;13.88;100.00;99287.56;2043657;29;20227;-73
2022/05/14 00:37:16;;;;;;;20.58;18.67;;;;;;;13.86;100.00;99280.63;2042157;29;20262;-73
2022/05/14 00:38:18;;;;;;;20.77;18.95;;;;;;;13.84;100.00;99285.53;2042688;29;20563;-73
2022/05/14 00:39:19;;;;;;;20.50;18.77;;;;;;;13.82;100.00;99289.63;2043793;29;20203;-72
2022/05/14 00:40:24;;;;;;;21.03;19.30;;;;;;;13.80;100.00;99283.75;2042504;29;20191;-72
2022/05/14 00:41:27;;;;;;;22.33;18.98;;;;;;;13.81;100.00;99286.16;2043546;29;20199;-73
2022/05/14 00:42:28;;;;;;;20.90;19.10;;;;;;;13.79;100.00;99284.88;2034030;29;20282;-73
2022/05/14 00:43:31;;;;;;;20.60;18.77;;;;;;;13.74;100.00;99282.34;2034257;29;20279;-72
2022/05/14 00:44:33;;;;;;;21.10;19.35;;;;;;;13.71;100.00;99280.28;2044164;29;20274;-73
2022/05/14 00:45:37;;;;;;;20.25;18.67;;;;;;;13.66;100.00;99278.53;2033443;29;20237;-72
2022/05/14 00:46:45;;;;;;;20.90;19.30;;;;;;;13.65;100.00;99284.22;2036523;29;20187;-73
2022/05/14 00:47:50;;;;;;;20.65;18.85;;;;;;;13.61;100.00;99285.91;2033193;29;20207;-73
2022/05/14 00:48:55;;;;;;;20.40;18.52;;;;;;;13.63;100.00;99278.34;2035431;29;20235;-73
2022/05/14 00:49:58;;;;;;;20.35;18.73;;;;;;;13.60;100.00;99278.97;2035167;29;20253;-73
2022/05/14 00:51:00;;;;;;;21.08;19.38;;;;;;;13.63;100.00;99284.50;2033196;29;20196;-73
2022/05/14 00:52:02;;;;;;;20.70;18.98;;;;;;;13.69;100.00;99285.16;2036084;29;20231;-73
2022/05/14 00:53:06;;;;;;;20.58;18.83;;;;;;;13.72;100.00;99282.63;2025792;29;20223;-72
2022/05/14 00:54:09;;;;;;;20.58;18.58;;;;;;;13.76;100.00;99282.81;2026555;29;20220;-72
2022/05/14 00:55:12;;;;;;;19.83;18.08;;;;;;;13.69;100.00;99275.22;2034612;29;20218;-72
2022/05/14 00:56:14;;;;;;;19.48;17.90;;;;;;;13.58;100.00;99277.41;2041366;29;20266;-73
2022/05/14 00:57:21;;;;;;;19.80;18.00;;;;;;;13.51;100.00;99279.72;2035556;29;20208;-73
2022/05/14 00:58:31;;;;;;;18.70;17.30;;;;;;;13.48;100.00;99277.69;2026470;29;20569;-73
2022/05/14 00:59:33;;;;;;;20.15;18.25;;;;;;;13.46;100.00;99271.03;2028454;29;20610;-73
2022/05/14 01:00:34;;;;;;;18.67;17.13;;;;;;;13.40;100.00;99269.59;2034001;29;20266;-72
2022/05/14 01:01:37;;;;;;;18.53;17.23;;;;;;;13.34;100.00;99271.63;2041909;29;20199;-73
2022/05/14 01:02:39;;;;;;;18.60;17.00;;;;;;;13.34;100.00;99281.56;2044139;29;20195;-72
2022/05/14 01:03:42;;;;;;;17.98;16.23;;;;;;;13.28;100.00;99278.19;2033425;29;20218;-73
2022/05/14 01:04:45;;;;;;;17.60;15.95;;;;;;;13.23;100.00;99278.34;2034432;29;20650;-73
2022/05/14 01:05:47;;;;;;;18.00;16.35;;;;;;;13.18;100.00;99279.22;2041821;29;20195;-73
2022/05/14 01:06:50;;;;;;;19.38;17.50;;;;;;;13.12;100.00;99277.81;2040922;29;20226;-73
2022/05/14 01:07:54;;;;;;;18.83;16.95;;;;;;;13.05;100.00;99279.34;2035746;29;20563;-73
2022/05/14 01:08:59;;;;;;;17.45;15.95;;;;;;;12.98;100.00;99279.75;2033869;29;20266;-72
2022/05/14 01:10:03;;;;;;;17.75;16.25;;;;;;;12.91;100.00;99274.81;2034806;29;20219;-72
2022/05/14 01:11:09;;;;;;;17.83;16.42;;;;;;;12.87;100.00;99273.09;2027551;29;20200;-72
2022/05/14 01:12:13;;;;;;;19.15;17.23;;;;;;;12.82;100.00;99275.88;2026021;29;20796;-72
2022/05/14 01:13:15;;;;;;;17.45;15.80;;;;;;;12.79;100.00;99277.28;2044919;29;20289;-72
2022/05/14 01:14:16;;;;;;;17.77;15.77;;;;;;;12.78;100.00;99275.69;2041121;29;20405;-72
2022/05/14 01:15:20;;;;;;;17.87;16.20;;;;;;;12.74;100.00;99280.06;2026745;29;20212;-72
2022/05/14 01:16:21;;;;;;;17.75;16.33;;;;;;;12.70;100.00;99279.09;2033883;29;20204;-72
2022/05/14 01:17:23;;;;;;;18.27;16.95;;;;;;;12.66;100.00;99283.47;2033330;29;20667;-72
2022/05/14 01:18:28;;;;;;;20.35;18.67;;;;;;;12.63;100.00;99278.75;2028162;29;20209;-72
2022/05/14 01:19:31;;;;;;;19.17;17.33;;;;;;;12.57;100.00;99280.72;2033897;29;20188;-72
2022/05/14 01:20:36;;;;;;;21.50;19.40;;;;;;;12.59;100.00;99285.78;2035342;29;20211;-72
2022/05/14 01:21:42;;;;;;;21.80;19.73;;;;;;;12.55;100.00;99282.13;2033436;29;20279;-72
2022/05/14 01:22:53;;;;;;;21.88;19.92;;;;;;;12.49;100.00;99275.31;2042886;29;20662;-72
2022/05/14 01:26:52;;;;;;;21.08;19.38;;;;;;;12.26;100.00;99286.00;2043599;29;20276;-73
2022/05/14 01:27:53;;;;;;;21.75;19.85;;;;;;;12.24;100.00;99288.16;2034865;29;20214;-73
2022/05/14 01:29:00;;;;;;;21.67;19.65;;;;;;;12.17;100.00;99287.81;2038345;29;20219;-73
2022/05/14 01:30:02;;;;;;;23.02;19.75;;;;;;;12.15;100.00;99284.63;2042849;29;20239;-71
2022/05/14 01:31:08;;;;;;;21.58;19.92;;;;;;;12.13;100.00;99286.81;2035682;29;20294;-73
2022/05/14 01:32:09;;;;;;;21.23;19.50;;;;;;;12.17;100.00;99287.81;2028263;29;20188;-72
2022/05/14 01:33:12;;;;;;;22.30;20.10;;;;;;;12.16;100.00;99284.34;2034742;29;20235;-72
2022/05/14 01:34:23;;;;;;;22.02;20.15;;;;;;;12.25;100.00;99287.09;2045479;29;20198;-72
2022/05/14 01:35:25;;;;;;;21.52;19.73;;;;;;;12.26;100.00;99285.22;2042714;29;20222;-72
2022/05/14 01:36:28;;;;;;;21.88;19.65;;;;;;;12.26;100.00;99280.66;2044691;29;20227;-72
2022/05/14 01:37:29;;;;;;;22.77;20.58;;;;;;;12.27;100.00;99286.78;2027156;29;20204;-72
2022/05/14 01:38:31;;;;;;;24.00;20.38;;;;;;;12.25;100.00;99286.28;2026894;29;20203;-72
2022/05/14 01:39:34;;;;;;;23.17;21.20;;;;;;;12.23;100.00;99289.25;2037821;29;20251;-72
2022/05/14 01:40:40;;;;;;;22.42;20.27;;;;;;;12.22;100.00;99285.00;2035598;29;20192;-72
2022/05/14 01:41:41;;;;;;;21.85;19.95;;;;;;;12.25;100.00;99286.28;2044359;29;20597;-72
2022/05/14 01:42:45;;;;;;;21.13;19.33;;;;;;;12.21;100.00;99282.63;2043194;29;20575;-72
2022/05/14 01:43:46;;;;;;;20.35;17.92;;;;;;;12.23;100.00;99285.78;2042496;29;20206;-72
2022/05/14 01:44:48;;;;;;;19.13;17.42;;;;;;;12.22;100.00;99286.88;2045506;29;20684;-72
2022/05/14 01:45:49;;;;;;;18.67;16.98;;;;;;;12.20;100.00;99292.53;2042103;29;20700;-72
2022/05/14 01:46:52;;;;;;;19.30;17.70;;;;;;;12.19;100.00;99285.59;2036455;29;20195;-72
2022/05/14 01:47:53;;;;;;;19.92;18.00;;;;;;;12.19;100.00;99290.16;2043384;29;20191;-72
2022/05/14 01:48:55;;;;;;;19.95;18.10;;;;;;;12.18;100.00;99285.91;2034725;29;20738;-72
2022/05/14 01:49:57;;;;;;;20.23;18.35;;;;;;;12.13;100.00;99287.59;2029774;29;20228;-72
2022/05/14 01:50:59;;;;;;;20.52;18.38;;;;;;;12.09;100.00;99285.84;2034209;29;20206;-72
2022/05/14 01:52:01;;;;;;;20.02;17.83;;;;;;;12.05;100.00;99290.97;2043657;29;20179;-72
2022/05/14 01:53:03;;;;;;;18.70;16.92;;;;;;;12.01;100.00;99291.88;2044898;29;20195;-71
2022/05/14 01:54:07;;;;;;;19.48;17.70;;;;;;;11.99;100.00;99289.50;2034630;29;20207;-72
2022/05/14 01:55:08;;;;;;;19.77;18.08;;;;;;;11.96;100.00;99290.09;2038217;29;20196;-72
2022/05/14 01:56:10;;;;;;;19.10;17.58;;;;;;;12.01;100.00;99291.88;2042504;29;20195;-72
2022/05/14 01:57:11;;;;;;;19.92;18.23;;;;;;;11.98;100.00;99292.47;2042724;29;20207;-72
2022/05/14 01:59:39;;;;;;;19.67;18.08;;;;;;;11.96;100.00;99286.63;2042480;29;20206;-72
2022/05/14 02:00:41;;;;;;;21.27;19.15;;;;;;;11.94;100.00;99288.81;2045132;29;20673;-72
2022/05/14 02:01:43;;;;;;;20.83;18.75;;;;;;;11.91;100.00;99289.44;2042628;29;20205;-72
2022/05/14 02:02:44;;;;;;;19.95;17.45;;;;;;;11.91;100.00;99290.22;2044610;29;20599;-72
2022/05/14 02:03:51;;;;;;;21.63;19.55;;;;;;;11.93;100.00;99292.59;2027474;29;20668;-72
2022/05/14 02:04:53;;;;;;;19.30;17.45;;;;;;;11.88;100.00;99288.91;2034837;29;20231;-72
2022/05/14 02:05:58;;;;;;;19.48;17.65;;;;;;;11.78;100.00;99289.09;2036512;29;20191;-72
2022/05/14 02:07:01;;;;;;;19.02;17.50;;;;;;;11.75;100.00;99287.03;2034625;29;20628;-72
2022/05/14 02:08:05;;;;;;;18.55;17.05;;;;;;;11.76;100.00;99283.25;2037106;29;20653;-72
2022/05/14 02:09:09;;;;;;;18.75;17.05;;;;;;;11.73;100.00;99291.09;2034219;29;20655;-72
2022/05/14 02:10:10;;;;;;;20.83;18.90;;;;;;;11.70;100.00;99284.44;2034842;29;20199;-73
2022/05/14 02:11:13;;;;;;;20.38;18.77;;;;;;;11.67;100.00;99285.03;2045178;29;20227;-73
2022/05/14 02:12:15;;;;;;;19.85;17.90;;;;;;;11.63;100.00;99288.59;2042292;29;20207;-73
2022/05/14 02:13:20;;;;;;;19.45;17.65;;;;;;;11.58;100.00;99279.59;2044388;29;20668;-73
2022/05/14 02:14:24;;;;;;;19.52;17.83;;;;;;;11.54;100.00;99286.59;2035197;29;20177;-73
2022/05/14 02:15:26;;;;;;;18.05;16.35;;;;;;;11.47;100.00;99280.09;2043050;29;20218;-73
2022/05/14 02:16:28;;;;;;;20.35;18.40;;;;;;;11.45;100.00;99284.94;2045984;29;20210;-73
2022/05/14 02:17:30;;;;;;;21.00;19.08;;;;;;;11.42;100.00;99280.19;2034849;29;20207;-73
2022/05/14 02:18:32;;;;;;;20.33;18.67;;;;;;;11.41;100.00;99286.63;2028196;29;20305;-73
2022/05/14 02:19:33;;;;;;;22.15;20.17;;;;;;;11.39;100.00;99281.56;2035498;29;20278;-73
2022/05/14 02:20:37;;;;;;;21.60;19.57;;;;;;;11.38;100.00;99280.00;2042284;29;20202;-73
2022/05/14 02:21:41;;;;;;;20.80;19.08;;;;;;;11.33;100.00;99280.06;2044825;29;20227;-73
2022/05/14 02:22:48;;;;;;;20.73;18.98;;;;;;;11.30;100.00;99284.13;2042982;29;20187;-73
2022/05/14 02:23:49;;;;;;;20.40;18.80;;;;;;;11.26;100.00;99280.44;2044724;29;20606;-73
2022/05/14 02:24:51;;;;;;;22.87;19.43;;;;;;;11.22;100.00;99289.38;2035407;29;20204;-73
2022/05/14 02:25:52;;;;;;;20.55;18.75;;;;;;;11.16;100.00;99283.31;2026690;29;20200;-73
2022/05/14 02:26:57;;;;;;;21.15;19.05;;;;;;;11.10;100.00;99278.34;2037168;29;20200;-73
2022/05/14 02:27:58;;;;;;;21.10;19.13;;;;;;;11.04;100.00;99281.13;2042915;29;20245;-73
2022/05/14 02:29:04;;;;;;;20.40;18.75;;;;;;;11.00;100.00;99281.97;2043506;29;20663;-73
2022/05/14 02:30:07;;;;;;;20.45;18.75;;;;;;;10.94;100.00;99280.47;2036335;29;20191;-73
2022/05/14 02:31:09;;;;;;;19.55;18.13;;;;;;;10.89;100.00;99276.03;2043089;29;20198;-73
2022/05/14 02:32:10;;;;;;;20.08;18.00;;;;;;;10.95;100.00;99274.06;2045555;29;20202;-73
2022/05/14 02:33:12;;;;;;;20.60;18.70;;;;;;;10.90;100.00;99277.63;2041918;29;20266;-72
2022/05/14 02:34:15;;;;;;;19.33;17.90;;;;;;;10.93;100.00;99277.00;2035750;29;20191;-73
2022/05/14 02:35:17;;;;;;;18.70;17.25;;;;;;;10.97;100.00;99287.91;2035100;29;20203;-73
2022/05/14 02:36:19;;;;;;;20.65;18.60;;;;;;;10.99;100.00;99280.41;2033812;29;20362;-73
2022/05/14 02:37:24;;;;;;;20.10;18.33;;;;;;;11.04;100.00;99283.00;2036923;29;20203;-73
2022/05/14 02:38:26;;;;;;;19.13;17.48;;;;;;;11.04;100.00;99283.00;2027042;29;20204;-73
2022/05/14 02:39:28;;;;;;;20.42;18.40;;;;;;;11.07;100.00;99290.41;2027763;29;20256;-72
2022/05/14 02:40:30;;;;;;;20.88;18.58;;;;;;;11.12;100.00;99290.34;2027848;29;20302;-72
2022/05/14 02:41:33;;;;;;;20.40;18.33;;;;;;;11.11;100.00;99282.59;2034330;29;20593;-73
2022/05/14 02:42:34;;;;;;;20.23;18.63;;;;;;;11.08;100.00;99289.31;2044615;29;20214;-72
2022/05/14 02:43:38;;;;;;;20.08;17.98;;;;;;;11.02;100.00;99285.94;2034309;29;20259;-73
2022/05/14 02:44:41;;;;;;;20.15;18.27;;;;;;;10.95;100.00;99282.88;2035541;29;20685;-72
2022/05/14 02:45:43;;;;;;;22.77;18.02;;;;;;;10.98;100.00;99284.16;2044885;29;20245;-72
2022/05/14 02:46:44;;;;;;;19.52;17.88;;;;;;;10.93;100.00;99281.56;2042080;29;20290;-73
2022/05/14 02:47:46;;;;;;;22.98;20.48;;;;;;;10.91;100.00;99278.41;2045121;29;20191;-72
2022/05/14 02:48:47;;;;;;;22.23;20.35;;;;;;;10.87;100.00;99277.41;2034347;29;20207;-72
2022/05/14 02:49:52;;;;;;;23.58;21.20;;;;;;;10.86;100.00;99270.47;2026469;29;20196;-72
2022/05/14 02:50:53;;;;;;;23.60;20.92;;;;;;;10.82;100.00;99269.47;2036293;29;20196;-73
2022/05/14 02:51:57;;;;;;;23.40;21.33;;;;;;;10.82;100.00;99269.47;2042090;29;20588;-73
2022/05/14 02:52:58;;;;;;;22.85;21.00;;;;;;;10.81;100.00;99273.22;2036274;29;20290;-73
2022/05/14 02:53:59;;;;;;;23.57;21.47;;;;;;;10.78;100.00;99271.16;2034432;29;20199;-74
2022/05/14 02:55:01;;;;;;;23.38;21.55;;;;;;;10.75;100.00;99273.31;2034316;29;20219;-73
2022/05/14 02:56:05;;;;;;;23.67;21.65;;;;;;;10.74;100.00;99274.38;2036884;29;20192;-73
2022/05/14 02:57:07;;;;;;;23.90;21.48;;;;;;;10.69;100.00;99266.47;2042707;29;20206;-73
2022/05/14 02:58:10;;;;;;;23.95;21.50;;;;;;;10.67;100.00;99268.63;2045401;29;20211;-73
2022/05/14 02:59:10;;;;;;;21.38;19.73;;;;;;;10.61;100.00;99282.34;2034133;29;20203;-73
2022/05/14 03:00:18;;;;;;;21.67;20.00;;;;;;;10.57;100.00;99279.47;2034367;29;20706;-72
2022/05/14 03:01:19;;;;;;;22.30;20.35;;;;;;;10.54;100.00;99276.59;2044759;29;20195;-73
2022/05/14 03:02:21;;;;;;;23.75;21.45;;;;;;;10.50;100.00;99278.25;2034228;29;20210;-72
2022/05/14 03:03:22;;;;;;;22.15;20.15;;;;;;;10.46;100.00;99281.50;2029164;29;20280;-72
2022/05/14 03:04:27;;;;;;;22.43;20.53;;;;;;;10.41;100.00;99283.44;2026439;29;20207;-73
2022/05/14 03:05:28;;;;;;;23.50;21.33;;;;;;;10.38;100.00;99278.69;2027022;29;20206;-72
2022/05/14 03:06:30;;;;;;;23.85;21.98;;;;;;;10.36;100.00;99288.84;2028495;29;20236;-72
2022/05/14 03:07:31;;;;;;;24.27;22.25;;;;;;;10.33;100.00;99281.41;2026384;29;20200;-73
2022/05/14 03:08:33;;;;;;;24.90;22.20;;;;;;;10.29;100.00;99280.41;2036129;29;20196;-73
2022/05/14 03:09:35;;;;;;;24.13;22.13;;;;;;;10.26;100.00;99281.81;2043377;29;20187;-72
2022/05/14 03:10:38;;;;;;;23.77;21.63;;;;;;;10.25;100.00;99288.22;2041942;29;20662;-72
2022/05/14 03:11:41;;;;;;;24.17;21.95;;;;;;;10.20;100.00;99285.56;2036866;29;20304;-73
2022/05/14 03:12:43;;;;;;;24.20;21.67;;;;;;;10.17;100.00;99288.81;2034528;29;20212;-73
2022/05/14 03:13:44;;;;;;;24.83;22.40;;;;;;;10.14;100.00;99292.03;2035764;29;20259;-73
2022/05/14 03:14:46;;;;;;;24.20;22.10;;;;;;;10.14;100.00;99286.72;2035396;29;20267;-73
2022/05/14 03:15:49;;;;;;;24.00;22.00;;;;;;;10.12;100.00;99289.69;2042563;29;20278;-73
2022/05/14 03:16:52;;;;;;;23.85;21.50;;;;;;;10.16;100.00;99292.53;2036707;29;20210;-73
2022/05/14 03:17:54;;;;;;;24.00;21.98;;;;;;;10.22;100.00;99295.94;2026372;29;20212;-73
2022/05/14 03:18:58;;;;;;;24.63;22.17;;;;;;;10.20;100.00;99302.38;2027512;29;20569;-73
2022/05/14 03:20:01;;;;;;;24.05;21.95;;;;;;;10.17;100.00;99297.63;2035776;29;20208;-73
2022/05/14 03:21:04;;;;;;;24.98;22.60;;;;;;;10.23;100.00;99305.56;2041950;29;20254;-72
2022/05/14 03:22:05;;;;;;;25.02;22.77;;;;;;;10.16;100.00;99300.53;2044698;29;20191;-73
2022/05/14 03:23:08;;;;;;;25.42;22.95;;;;;;;10.16;100.00;99308.53;2034168;29;20206;-73
2022/05/14 03:24:13;;;;;;;25.40;22.90;;;;;;;10.17;100.00;99318.16;2035844;29;20195;-73
2022/05/14 03:25:15;;;;;;;25.27;22.75;;;;;;;10.20;100.00;99307.69;2035538;29;20695;-73
2022/05/14 03:26:19;;;;;;;26.42;24.02;;;;;;;10.17;100.00;99308.28;2026266;29;20236;-73
2022/05/14 03:27:21;;;;;;;26.83;24.02;;;;;;;10.19;100.00;99314.13;2029275;29;20302;-73
2022/05/14 03:28:22;;;;;;;26.13;23.73;;;;;;;10.21;100.00;99303.16;2034044;29;20298;-73
2022/05/14 03:29:24;;;;;;;26.80;24.20;;;;;;;10.23;100.00;99308.22;2034916;29;20222;-73
2022/05/14 03:30:25;;;;;;;26.25;23.65;;;;;;;10.26;100.00;99316.47;2027627;29;20200;-73
2022/05/14 03:31:29;;;;;;;26.63;23.83;;;;;;;10.26;100.00;99310.34;2034108;29;20218;-72
2022/05/14 03:32:31;;;;;;;25.42;22.98;;;;;;;10.29;100.00;99315.88;2044998;29;20430;-72
2022/05/14 03:33:34;;;;;;;26.75;23.83;;;;;;;10.29;100.00;99310.53;2042281;29;20258;-72
2022/05/14 03:34:36;;;;;;;24.95;22.95;;;;;;;10.26;100.00;99310.34;2042667;29;20681;-73
2022/05/14 03:35:38;;;;;;;25.83;23.38;;;;;;;10.30;100.00;99308.66;2036445;29;20223;-73
2022/05/14 03:36:40;;;;;;;26.50;23.90;;;;;;;10.32;100.00;99314.50;2025854;29;20715;-73
2022/05/14 03:37:42;;;;;;;26.63;24.23;;;;;;;10.35;100.00;99312.06;2036532;29;20183;-73
2022/05/14 03:38:44;;;;;;;26.52;24.05;;;;;;;10.30;100.00;99317.47;2034036;29;20287;-73
2022/05/14 03:39:48;;;;;;;27.00;24.58;;;;;;;10.31;100.00;99313.72;2033872;29;20223;-73
2022/05/14 03:40:49;;;;;;;27.23;24.27;;;;;;;10.34;100.00;99318.50;2036366;29;20254;-73
2022/05/14 03:41:51;;;;;;;27.15;24.50;;;;;;;10.38;100.00;99318.69;2033889;29;20200;-72
2022/05/14 03:42:52;;;;;;;27.10;24.70;;;;;;;10.37;100.00;99325.13;2036989;29;20194;-72
2022/05/14 03:43:55;;;;;;;26.97;24.30;;;;;;;10.37;100.00;99317.13;2042644;29;20187;-73
2022/05/14 03:44:58;;;;;;;26.85;24.15;;;;;;;10.42;100.00;99325.03;2041109;29;20202;-72
2022/05/14 03:46:01;;;;;;;28.08;24.13;;;;;;;10.44;100.00;99325.56;2036487;29;20222;-73
2022/05/14 03:47:05;;;;;;;26.35;23.95;;;;;;;10.46;100.00;99320.72;2026394;29;20551;-72
2022/05/14 03:48:07;;;;;;;27.00;24.38;;;;;;;10.47;100.00;99311.63;2028435;29;20192;-73
2022/05/14 03:49:08;;;;;;;26.88;24.52;;;;;;;10.49;100.00;99309.47;2034175;29;20231;-73
2022/05/14 03:50:10;;;;;;;26.50;24.03;;;;;;;10.54;100.00;99316.63;2033865;29;20195;-72
2022/05/14 03:51:13;;;;;;;26.30;23.60;;;;;;;10.54;100.00;99314.72;2028550;29;20983;-73
2022/05/14 03:52:17;;;;;;;28.35;23.75;;;;;;;10.58;100.00;99321.06;2034416;29;20204;-72
2022/05/14 03:53:19;;;;;;;27.50;24.67;;;;;;;10.58;100.00;99321.06;2044590;29;20566;-73
2022/05/14 03:54:24;;;;;;;26.70;24.17;;;;;;;10.58;100.00;99320.28;2034240;29;20246;-73
2022/05/14 03:55:26;;;;;;;26.60;24.17;;;;;;;10.56;100.00;99307.22;2034195;29;20220;-73
2022/05/14 03:56:28;;;;;;;26.45;23.92;;;;;;;10.58;100.00;99314.94;2044487;29;20196;-73
2022/05/14 03:57:29;;;;;;;27.17;24.63;;;;;;;10.61;100.00;99314.38;2041850;29;20206;-73
2022/05/14 03:58:31;;;;;;;27.37;24.57;;;;;;;10.65;100.00;99318.03;2043833;29;20278;-73
2022/05/14 03:59:34;;;;;;;26.58;24.10;;;;;;;10.67;100.00;99316.66;2034648;29;20199;-73
2022/05/14 04:00:36;;;;;;;26.45;23.85;;;;;;;10.68;100.00;99318.25;2026100;29;20216;-73
2022/05/14 04:01:37;;;;;;;26.20;23.65;;;;;;;10.69;100.00;99316.41;2035020;29;20211;-73
2022/05/14 04:02:40;;;;;;;30.90;25.48;;;;;;;10.67;100.00;99322.00;2042074;29;20186;-72
2022/05/14 04:03:43;;;;;;;27.00;24.27;;;;;;;10.70;100.00;99325.97;2034582;29;20327;-73
2022/05/14 04:04:45;;;;;;;27.08;24.42;;;;;;;10.69;100.00;99317.19;2035391;29;20257;-73
2022/05/14 04:05:47;;;;;;;28.17;25.35;;;;;;;10.75;100.00;99316.00;2033659;29;20534;-73
2022/05/14 04:06:52;;;;;;;29.05;24.83;;;;;;;10.80;100.00;99322.38;2036353;29;20278;-73
2022/05/14 04:07:53;;;;;;;27.50;24.58;;;;;;;10.79;100.00;99318.13;2034297;29;20203;-73
2022/05/14 04:08:56;;;;;;;28.02;25.20;;;;;;;10.76;100.00;99325.59;2025818;29;20727;-73
2022/05/14 04:09:56;;;;;;;27.55;24.45;;;;;;;10.74;100.00;99321.63;2027967;29;20204;-72
2022/05/14 04:10:58;;;;;;;26.67;24.17;;;;;;;10.76;100.00;99325.59;2033765;29;20195;-73
2022/05/14 04:12:01;;;;;;;26.48;24.23;;;;;;;10.76;100.00;99322.13;2044457;29;20202;-72
2022/05/14 04:13:04;;;;;;;27.02;24.33;;;;;;;10.78;100.00;99319.19;2033931;29;20294;-72
2022/05/14 04:14:05;;;;;;;30.92;24.00;;;;;;;10.82;100.00;99317.53;2034075;29;20580;-72
2022/05/14 04:15:08;;;;;;;27.63;24.67;;;;;;;10.83;100.00;99311.09;2044769;29;20604;-73
2022/05/14 04:16:09;;;;;;;26.83;24.08;;;;;;;10.84;100.00;99316.13;2033568;29;20630;-73
2022/05/14 04:17:11;;;;;;;26.33;23.73;;;;;;;10.86;100.00;99316.66;2035659;29;20275;-72
2022/05/14 04:18:13;;;;;;;25.60;23.30;;;;;;;10.92;100.00;99322.69;2033701;29;20210;-73
2022/05/14 04:19:15;;;;;;;26.30;24.00;;;;;;;10.95;100.00;99322.91;2041107;29;20550;-73
2022/05/14 04:20:17;;;;;;;27.13;23.65;;;;;;;10.98;100.00;99321.53;2036313;29;20219;-73
2022/05/14 04:21:19;;;;;;;25.85;23.33;;;;;;;11.00;100.00;99322.03;2033251;29;20235;-72
2022/05/14 04:22:20;;;;;;;31.00;23.67;;;;;;;11.02;100.00;99330.53;2036103;29;20221;-73
2022/05/14 04:23:23;;;;;;;29.97;23.90;;;;;;;11.02;100.00;99331.31;2033609;29;20210;-73
2022/05/14 04:24:24;;;;;;;25.98;23.20;;;;;;;11.01;100.00;99324.41;2033764;29;20203;-73
2022/05/14 04:25:27;;;;;;;25.58;23.15;;;;;;;11.06;100.00;99328.09;2043972;29;20196;-72
2022/05/14 04:26:30;;;;;;;30.10;23.45;;;;;;;11.11;100.00;99339.47;2033580;29;20287;-73
2022/05/14 04:27:33;;;;;;;26.58;23.35;;;;;;;11.15;100.00;99339.69;2035831;29;20223;-72
2022/05/14 04:28:34;;;;;;;26.90;24.17;;;;;;;11.13;100.00;99340.00;2042003;29;20198;-73
2022/05/14 04:29:36;;;;;;;25.57;23.13;;;;;;;11.16;100.00;99339.38;2041326;29;20223;-73
2022/05/14 04:30:37;;;;;;;26.13;23.50;;;;;;;11.21;100.00;99339.31;2035628;29;20692;-73
2022/05/14 04:31:40;;;;;;;26.63;24.03;;;;;;;11.19;100.00;99340.69;2033477;29;20230;-73
2022/05/14 04:32:43;;;;;;;25.73;23.25;;;;;;;11.24;100.00;99340.59;2034826;29;20244;-73
2022/05/14 04:33:49;;;;;;;26.38;23.63;;;;;;;11.26;100.00;99335.75;2034394;29;20322;-72
2022/05/14 04:34:50;;;;;;;25.63;23.25;;;;;;;11.28;100.00;99339.72;2033483;29;20299;-73
2022/05/14 04:35:52;;;;;;;26.38;23.58;;;;;;;11.33;100.00;99338.84;2037022;29;20198;-72
2022/05/14 04:36:55;;;;;;;25.95;23.27;;;;;;;11.36;100.00;99345.47;2041431;29;20201;-73
2022/05/14 04:37:58;;;;;;;25.60;23.25;;;;;;;11.36;100.00;99338.25;2042571;29;20656;-72
2022/05/14 04:39:00;;;;;;;25.92;23.35;;;;;;;11.42;100.00;99349.66;2034788;29;20202;-73
2022/05/14 04:40:02;;;;;;;24.90;22.27;;;;;;;11.44;100.00;99345.59;2025636;29;20287;-73
2022/05/14 04:41:05;;;;;;;24.55;22.42;;;;;;;11.47;100.00;99349.56;2028797;29;20204;-73
2022/05/14 04:42:08;;;;;;;25.00;22.60;;;;;;;11.50;100.00;99355.09;2033722;29;20234;-73
2022/05/14 04:43:12;;;;;;;25.42;22.95;;;;;;;11.52;100.00;99352.13;2042689;29;20190;-73
2022/05/14 04:44:13;;;;;;;25.90;23.05;;;;;;;11.58;100.00;99361.66;2033908;29;20204;-73
2022/05/14 04:45:15;;;;;;;25.17;23.07;;;;;;;11.60;100.00;99357.59;2033497;29;20286;-73
2022/05/14 04:46:17;;;;;;;24.85;22.45;;;;;;;11.64;100.00;99357.81;2036221;29;20215;-73
2022/05/14 04:47:21;;;;;;;25.30;22.63;;;;;;;11.69;100.00;99362.25;2041391;29;20242;-73
2022/05/14 04:48:23;;;;;;;25.17;22.70;;;;;;;11.71;100.00;99350.16;2049559;29;20198;-73
2022/05/14 04:49:26;;;;;;;25.52;23.20;;;;;;;11.75;100.00;99355.72;2034825;29;20230;-72
2022/05/14 04:50:28;;;;;;;25.00;22.73;;;;;;;11.77;100.00;99358.91;2025772;29;20670;-73